Terminal Aerodrome Forecast
Issued by NWS

Home | Current Version | Previous Version | Text Only | Print | Product List | Glossary On
Versions: 1 2 3 4 5 6 7 8 9 10 11 12 13 14
000
FTUS45 KTFX 271700
TAFLWT
TAF
KLWT 271728Z 2718/2818 30011KT P6SM SCT120
     FM272000 29010G20KT P6SM SCT120 BKN150
     FM280100 23005KT P6SM SCT120=

USA.gov is the U.S. government's official web portal to all federal, state and local government web resources and services.